sensor_id;sensor_type;location;lat;lon;timestamp;temperature;humidity
1778;DHT22;886;50.082;8.222;2023-02-28T00:00:54;3.20;93.80
1778;DHT22;886;50.082;8.222;2023-02-28T00:03:22;3.10;93.90
1778;DHT22;886;50.082;8.222;2023-02-28T00:05:49;3.10;94.00
1778;DHT22;886;50.082;8.222;2023-02-28T00:08:17;3.10;93.90
1778;DHT22;886;50.082;8.222;2023-02-28T00:10:45;3.10;94.00
1778;DHT22;886;50.082;8.222;2023-02-28T00:13:12;3.10;94.10
1778;DHT22;886;50.082;8.222;2023-02-28T00:15:39;3.10;94.10
1778;DHT22;886;50.082;8.222;2023-02-28T00:18:08;3.10;94.20
1778;DHT22;886;50.082;8.222;2023-02-28T00:20:35;3.20;94.20
1778;DHT22;886;50.082;8.222;2023-02-28T00:23:02;3.10;94.30
1778;DHT22;886;50.082;8.222;2023-02-28T00:25:31;3.10;94.30
1778;DHT22;886;50.082;8.222;2023-02-28T00:27:58;3.10;94.30
1778;DHT22;886;50.082;8.222;2023-02-28T00:30:25;3.10;94.40
1778;DHT22;886;50.082;8.222;2023-02-28T00:32:52;3.10;94.40
1778;DHT22;886;50.082;8.222;2023-02-28T00:35:20;3.00;94.30
1778;DHT22;886;50.082;8.222;2023-02-28T00:37:48;3.10;94.50
1778;DHT22;886;50.082;8.222;2023-02-28T00:40:16;3.10;94.40
1778;DHT22;886;50.082;8.222;2023-02-28T00:42:44;3.00;94.40
1778;DHT22;886;50.082;8.222;2023-02-28T00:45:11;2.90;94.60
1778;DHT22;886;50.082;8.222;2023-02-28T00:47:39;2.90;94.70
1778;DHT22;886;50.082;8.222;2023-02-28T00:50:07;2.90;94.80
1778;DHT22;886;50.082;8.222;2023-02-28T00:52:35;2.90;94.80
1778;DHT22;886;50.082;8.222;2023-02-28T00:55:03;2.90;94.80
1778;DHT22;886;50.082;8.222;2023-02-28T00:57:31;2.90;94.80
1778;DHT22;886;50.082;8.222;2023-02-28T01:00:00;2.90;94.80
1778;DHT22;886;50.082;8.222;2023-02-28T01:02:28;2.90;94.80
1778;DHT22;886;50.082;8.222;2023-02-28T01:04:55;2.80;94.80
1778;DHT22;886;50.082;8.222;2023-02-28T01:07:23;2.80;94.90
1778;DHT22;886;50.082;8.222;2023-02-28T01:09:51;2.80;95.00
1778;DHT22;886;50.082;8.222;2023-02-28T01:12:17;2.80;95.10
1778;DHT22;886;50.082;8.222;2023-02-28T01:14:45;2.70;95.20
1778;DHT22;886;50.082;8.222;2023-02-28T01:17:14;2.70;95.30
1778;DHT22;886;50.082;8.222;2023-02-28T01:19:41;2.70;95.30
1778;DHT22;886;50.082;8.222;2023-02-28T01:22:08;2.80;95.20
1778;DHT22;886;50.082;8.222;2023-02-28T01:24:35;2.70;95.30
1778;DHT22;886;50.082;8.222;2023-02-28T01:27:04;2.70;95.40
1778;DHT22;886;50.082;8.222;2023-02-28T01:29:31;2.70;95.50
1778;DHT22;886;50.082;8.222;2023-02-28T01:31:58;2.60;95.60
1778;DHT22;886;50.082;8.222;2023-02-28T01:34:27;2.50;95.80
1778;DHT22;886;50.082;8.222;2023-02-28T01:36:55;2.50;96.00
1778;DHT22;886;50.082;8.222;2023-02-28T01:39:22;2.50;96.00
1778;DHT22;886;50.082;8.222;2023-02-28T01:41:49;2.50;96.10
1778;DHT22;886;50.082;8.222;2023-02-28T01:47:24;2.30;96.40
1778;DHT22;886;50.082;8.222;2023-02-28T01:49:54;2.30;96.50
1778;DHT22;886;50.082;8.222;2023-02-28T01:52:22;2.40;96.50
1778;DHT22;886;50.082;8.222;2023-02-28T01:54:55;2.40;96.50
1778;DHT22;886;50.082;8.222;2023-02-28T01:57:27;2.40;96.50
1778;DHT22;886;50.082;8.222;2023-02-28T01:59:58;2.40;96.60
1778;DHT22;886;50.082;8.222;2023-02-28T02:02:29;2.30;96.70
1778;DHT22;886;50.082;8.222;2023-02-28T02:05:00;2.30;96.80
1778;DHT22;886;50.082;8.222;2023-02-28T02:07:33;2.30;96.80
1778;DHT22;886;50.082;8.222;2023-02-28T02:10:06;2.30;96.80
1778;DHT22;886;50.082;8.222;2023-02-28T02:12:56;2.20;96.90
1778;DHT22;886;50.082;8.222;2023-02-28T02:15:34;2.30;96.60
1778;DHT22;886;50.082;8.222;2023-02-28T02:18:13;2.40;96.50
1778;DHT22;886;50.082;8.222;2023-02-28T02:28:04;2.30;96.40
1778;DHT22;886;50.082;8.222;2023-02-28T02:30:59;2.30;96.40
1778;DHT22;886;50.082;8.222;2023-02-28T02:37:08;2.40;96.20
1778;DHT22;886;50.082;8.222;2023-02-28T02:39:45;2.30;96.10
1778;DHT22;886;50.082;8.222;2023-02-28T02:42:21;2.20;96.10
1778;DHT22;886;50.082;8.222;2023-02-28T02:44:56;2.20;96.20
1778;DHT22;886;50.082;8.222;2023-02-28T02:47:29;2.20;96.10
1778;DHT22;886;50.082;8.222;2023-02-28T02:50:04;2.20;96.00
1778;DHT22;886;50.082;8.222;2023-02-28T02:52:37;2.20;96.00
1778;DHT22;886;50.082;8.222;2023-02-28T02:55:08;2.20;96.00
1778;DHT22;886;50.082;8.222;2023-02-28T02:57:42;2.20;96.00
1778;DHT22;886;50.082;8.222;2023-02-28T03:00:13;2.20;95.90
1778;DHT22;886;50.082;8.222;2023-02-28T03:02:43;2.10;95.90
1778;DHT22;886;50.082;8.222;2023-02-28T03:05:18;2.10;96.00
1778;DHT22;886;50.082;8.222;2023-02-28T03:07:47;2.20;96.00
1778;DHT22;886;50.082;8.222;2023-02-28T03:10:32;2.10;96.00
1778;DHT22;886;50.082;8.222;2023-02-28T03:16:46;2.20;95.80
1778;DHT22;886;50.082;8.222;2023-02-28T03:19:38;2.10;95.90
1778;DHT22;886;50.082;8.222;2023-02-28T03:22:26;2.10;95.80
1778;DHT22;886;50.082;8.222;2023-02-28T03:25:07;2.00;95.90
1778;DHT22;886;50.082;8.222;2023-02-28T03:27:39;2.00;95.90
1778;DHT22;886;50.082;8.222;2023-02-28T03:30:11;2.00;95.90
1778;DHT22;886;50.082;8.222;2023-02-28T03:32:45;2.00;95.90
1778;DHT22;886;50.082;8.222;2023-02-28T03:35:20;2.00;95.80
1778;DHT22;886;50.082;8.222;2023-02-28T03:37:55;1.90;95.70
1778;DHT22;886;50.082;8.222;2023-02-28T03:40:30;1.90;95.90
1778;DHT22;886;50.082;8.222;2023-02-28T03:43:03;1.90;95.90
1778;DHT22;886;50.082;8.222;2023-02-28T03:45:37;1.90;95.80
1778;DHT22;886;50.082;8.222;2023-02-28T03:48:11;1.90;95.90
1778;DHT22;886;50.082;8.222;2023-02-28T03:50:41;1.90;96.00
1778;DHT22;886;50.082;8.222;2023-02-28T03:53:17;1.90;96.00
1778;DHT22;886;50.082;8.222;2023-02-28T03:55:49;1.80;96.00
1778;DHT22;886;50.082;8.222;2023-02-28T03:58:22;1.90;96.00
1778;DHT22;886;50.082;8.222;2023-02-28T04:00:58;1.80;95.90
1778;DHT22;886;50.082;8.222;2023-02-28T04:03:35;1.80;96.00
1778;DHT22;886;50.082;8.222;2023-02-28T04:06:04;1.80;95.70
1778;DHT22;886;50.082;8.222;2023-02-28T04:08:34;1.80;95.60
1778;DHT22;886;50.082;8.222;2023-02-28T04:11:06;1.80;95.60
1778;DHT22;886;50.082;8.222;2023-02-28T04:13:38;1.80;95.60
1778;DHT22;886;50.082;8.222;2023-02-28T04:16:06;1.80;95.60
1778;DHT22;886;50.082;8.222;2023-02-28T04:18:47;1.80;95.40
1778;DHT22;886;50.082;8.222;2023-02-28T04:21:17;1.90;95.10
1778;DHT22;886;50.082;8.222;2023-02-28T04:23:48;1.80;95.00
1778;DHT22;886;50.082;8.222;2023-02-28T04:26:15;1.90;94.90
1778;DHT22;886;50.082;8.222;2023-02-28T04:28:43;1.80;95.00
1778;DHT22;886;50.082;8.222;2023-02-28T04:31:10;1.80;95.00
1778;DHT22;886;50.082;8.222;2023-02-28T04:33:38;1.90;94.90
1778;DHT22;886;50.082;8.222;2023-02-28T04:36:07;1.80;94.70
1778;DHT22;886;50.082;8.222;2023-02-28T04:38:37;1.80;94.70
1778;DHT22;886;50.082;8.222;2023-02-28T04:41:07;1.90;94.70
1778;DHT22;886;50.082;8.222;2023-02-28T04:43:35;1.90;94.70
1778;DHT22;886;50.082;8.222;2023-02-28T04:46:04;1.80;94.70
1778;DHT22;886;50.082;8.222;2023-02-28T04:48:34;1.80;94.70
1778;DHT22;886;50.082;8.222;2023-02-28T04:51:04;1.80;94.80
1778;DHT22;886;50.082;8.222;2023-02-28T04:53:34;1.70;94.80
1778;DHT22;886;50.082;8.222;2023-02-28T04:56:01;1.70;95.00
1778;DHT22;886;50.082;8.222;2023-02-28T04:58:30;1.70;94.90
1778;DHT22;886;50.082;8.222;2023-02-28T05:01:02;1.70;95.10
1778;DHT22;886;50.082;8.222;2023-02-28T05:03:31;1.70;95.10
1778;DHT22;886;50.082;8.222;2023-02-28T05:05:58;1.70;95.10
1778;DHT22;886;50.082;8.222;2023-02-28T05:08:26;1.70;95.20
1778;DHT22;886;50.082;8.222;2023-02-28T05:10:56;1.70;95.20
1778;DHT22;886;50.082;8.222;2023-02-28T05:13:23;1.60;95.30
1778;DHT22;886;50.082;8.222;2023-02-28T05:15:53;1.60;95.30
1778;DHT22;886;50.082;8.222;2023-02-28T05:18:21;1.60;95.40
1778;DHT22;886;50.082;8.222;2023-02-28T05:20:49;1.70;95.40
1778;DHT22;886;50.082;8.222;2023-02-28T05:23:17;1.70;95.30
1778;DHT22;886;50.082;8.222;2023-02-28T05:25:46;1.60;95.40
1778;DHT22;886;50.082;8.222;2023-02-28T05:28:14;1.70;95.40
1778;DHT22;886;50.082;8.222;2023-02-28T05:30:41;1.70;95.40
1778;DHT22;886;50.082;8.222;2023-02-28T05:33:11;1.70;95.30
1778;DHT22;886;50.082;8.222;2023-02-28T05:35:40;1.60;95.40
1778;DHT22;886;50.082;8.222;2023-02-28T05:38:08;1.60;95.40
1778;DHT22;886;50.082;8.222;2023-02-28T05:40:36;1.60;95.50
1778;DHT22;886;50.082;8.222;2023-02-28T05:43:22;1.60;95.50
1778;DHT22;886;50.082;8.222;2023-02-28T05:45:50;1.60;95.70
1778;DHT22;886;50.082;8.222;2023-02-28T05:48:19;1.70;95.30
1778;DHT22;886;50.082;8.222;2023-02-28T05:50:47;1.70;95.20
1778;DHT22;886;50.082;8.222;2023-02-28T05:53:14;1.80;95.30
1778;DHT22;886;50.082;8.222;2023-02-28T05:55:43;1.80;95.20
1778;DHT22;886;50.082;8.222;2023-02-28T05:58:27;1.80;95.20
1778;DHT22;886;50.082;8.222;2023-02-28T06:00:58;1.80;95.20
1778;DHT22;886;50.082;8.222;2023-02-28T06:03:28;1.70;95.20
1778;DHT22;886;50.082;8.222;2023-02-28T06:05:55;1.80;95.10
1778;DHT22;886;50.082;8.222;2023-02-28T06:08:22;1.80;95.20
1778;DHT22;886;50.082;8.222;2023-02-28T06:10:50;1.80;95.20
1778;DHT22;886;50.082;8.222;2023-02-28T06:13:17;1.80;95.40
1778;DHT22;886;50.082;8.222;2023-02-28T06:16:02;1.80;95.20
1778;DHT22;886;50.082;8.222;2023-02-28T06:18:31;1.80;95.10
1778;DHT22;886;50.082;8.222;2023-02-28T06:20:58;1.80;95.00
1778;DHT22;886;50.082;8.222;2023-02-28T06:23:26;1.80;95.00
1778;DHT22;886;50.082;8.222;2023-02-28T06:25:55;1.70;95.20
1778;DHT22;886;50.082;8.222;2023-02-28T06:28:25;1.80;95.10
1778;DHT22;886;50.082;8.222;2023-02-28T06:30:54;1.80;95.00
1778;DHT22;886;50.082;8.222;2023-02-28T06:33:22;1.80;94.90
1778;DHT22;886;50.082;8.222;2023-02-28T06:35:51;1.80;94.70
1778;DHT22;886;50.082;8.222;2023-02-28T06:38:20;1.90;94.70
1778;DHT22;886;50.082;8.222;2023-02-28T06:40:53;1.80;94.80
1778;DHT22;886;50.082;8.222;2023-02-28T06:43:21;1.80;94.90
1778;DHT22;886;50.082;8.222;2023-02-28T06:45:50;1.70;94.60
1778;DHT22;886;50.082;8.222;2023-02-28T06:48:17;1.80;94.60
1778;DHT22;886;50.082;8.222;2023-02-28T06:50:46;1.80;94.20
1778;DHT22;886;50.082;8.222;2023-02-28T06:53:17;1.90;94.20
1778;DHT22;886;50.082;8.222;2023-02-28T06:55:45;1.90;93.90
1778;DHT22;886;50.082;8.222;2023-02-28T06:58:12;1.90;93.90
1778;DHT22;886;50.082;8.222;2023-02-28T07:00:42;1.90;93.80
1778;DHT22;886;50.082;8.222;2023-02-28T07:03:11;1.90;93.80
1778;DHT22;886;50.082;8.222;2023-02-28T07:05:39;2.00;93.80
1778;DHT22;886;50.082;8.222;2023-02-28T07:08:07;1.90;93.70
1778;DHT22;886;50.082;8.222;2023-02-28T07:10:38;2.00;93.70
1778;DHT22;886;50.082;8.222;2023-02-28T07:13:07;2.00;93.40
1778;DHT22;886;50.082;8.222;2023-02-28T07:15:35;2.00;93.10
1778;DHT22;886;50.082;8.222;2023-02-28T07:18:07;2.00;93.20
1778;DHT22;886;50.082;8.222;2023-02-28T07:20:35;2.10;92.60
1778;DHT22;886;50.082;8.222;2023-02-28T07:23:02;2.10;92.40
1778;DHT22;886;50.082;8.222;2023-02-28T07:25:30;2.10;92.30
1778;DHT22;886;50.082;8.222;2023-02-28T07:27:59;2.10;92.10
1778;DHT22;886;50.082;8.222;2023-02-28T07:30:28;2.10;91.90
1778;DHT22;886;50.082;8.222;2023-02-28T07:32:56;2.20;91.80
1778;DHT22;886;50.082;8.222;2023-02-28T07:35:24;2.20;91.50
1778;DHT22;886;50.082;8.222;2023-02-28T07:37:52;2.20;91.40
1778;DHT22;886;50.082;8.222;2023-02-28T07:40:22;2.30;91.30
1778;DHT22;886;50.082;8.222;2023-02-28T07:42:49;2.30;91.20
1778;DHT22;886;50.082;8.222;2023-02-28T07:45:18;2.30;90.90
1778;DHT22;886;50.082;8.222;2023-02-28T07:47:46;2.30;90.90
1778;DHT22;886;50.082;8.222;2023-02-28T07:50:14;2.40;90.80
1778;DHT22;886;50.082;8.222;2023-02-28T07:52:42;2.40;90.80
1778;DHT22;886;50.082;8.222;2023-02-28T07:55:10;2.40;90.60
1778;DHT22;886;50.082;8.222;2023-02-28T07:57:37;2.40;90.40
1778;DHT22;886;50.082;8.222;2023-02-28T08:00:07;2.50;90.30
1778;DHT22;886;50.082;8.222;2023-02-28T08:02:39;2.60;90.10
1778;DHT22;886;50.082;8.222;2023-02-28T08:05:07;2.60;90.10
1778;DHT22;886;50.082;8.222;2023-02-28T08:07:35;2.70;89.60
1778;DHT22;886;50.082;8.222;2023-02-28T08:10:03;2.70;89.60
1778;DHT22;886;50.082;8.222;2023-02-28T08:12:32;2.80;89.50
1778;DHT22;886;50.082;8.222;2023-02-28T08:14:59;2.90;89.30
1778;DHT22;886;50.082;8.222;2023-02-28T08:17:26;2.80;89.50
1778;DHT22;886;50.082;8.222;2023-02-28T08:19:55;2.80;89.70
1778;DHT22;886;50.082;8.222;2023-02-28T08:22:22;2.90;89.70
1778;DHT22;886;50.082;8.222;2023-02-28T08:24:50;2.90;89.50
1778;DHT22;886;50.082;8.222;2023-02-28T08:27:17;2.90;90.00
1778;DHT22;886;50.082;8.222;2023-02-28T08:29:44;2.90;89.60
1778;DHT22;886;50.082;8.222;2023-02-28T08:32:12;2.90;89.70
1778;DHT22;886;50.082;8.222;2023-02-28T08:34:56;3.00;89.90
1778;DHT22;886;50.082;8.222;2023-02-28T08:37:24;3.00;89.60
1778;DHT22;886;50.082;8.222;2023-02-28T08:39:51;3.10;89.60
1778;DHT22;886;50.082;8.222;2023-02-28T08:42:22;3.20;89.90
1778;DHT22;886;50.082;8.222;2023-02-28T08:44:50;3.20;89.80
1778;DHT22;886;50.082;8.222;2023-02-28T08:47:17;3.20;89.60
1778;DHT22;886;50.082;8.222;2023-02-28T08:49:45;3.20;89.90
1778;DHT22;886;50.082;8.222;2023-02-28T08:52:14;3.30;89.40
1778;DHT22;886;50.082;8.222;2023-02-28T08:54:42;3.30;88.90
1778;DHT22;886;50.082;8.222;2023-02-28T08:57:09;3.30;88.40
1778;DHT22;886;50.082;8.222;2023-02-28T08:59:36;3.40;88.90
1778;DHT22;886;50.082;8.222;2023-02-28T09:02:04;3.50;87.90
1778;DHT22;886;50.082;8.222;2023-02-28T09:04:31;3.50;88.70
1778;DHT22;886;50.082;8.222;2023-02-28T09:06:58;3.60;89.00
1778;DHT22;886;50.082;8.222;2023-02-28T09:09:27;3.60;88.90
1778;DHT22;886;50.082;8.222;2023-02-28T09:11:55;3.70;89.40
1778;DHT22;886;50.082;8.222;2023-02-28T09:14:22;3.70;88.50
1778;DHT22;886;50.082;8.222;2023-02-28T09:16:50;3.70;88.90
1778;DHT22;886;50.082;8.222;2023-02-28T09:19:17;3.70;88.60
1778;DHT22;886;50.082;8.222;2023-02-28T09:21:45;3.70;89.40
1778;DHT22;886;50.082;8.222;2023-02-28T09:24:12;3.80;89.30
1778;DHT22;886;50.082;8.222;2023-02-28T09:26:43;3.90;89.40
1778;DHT22;886;50.082;8.222;2023-02-28T09:29:29;3.90;89.30
1778;DHT22;886;50.082;8.222;2023-02-28T09:31:57;3.80;89.00
1778;DHT22;886;50.082;8.222;2023-02-28T09:34:25;3.90;89.10
1778;DHT22;886;50.082;8.222;2023-02-28T09:36:53;4.10;88.90
1778;DHT22;886;50.082;8.222;2023-02-28T09:39:22;4.10;88.90
1778;DHT22;886;50.082;8.222;2023-02-28T09:41:52;4.10;88.30
1778;DHT22;886;50.082;8.222;2023-02-28T09:44:26;4.20;88.10
1778;DHT22;886;50.082;8.222;2023-02-28T09:46:59;4.30;87.60
1778;DHT22;886;50.082;8.222;2023-02-28T09:49:34;4.30;87.20
1778;DHT22;886;50.082;8.222;2023-02-28T09:52:09;4.40;85.90
1778;DHT22;886;50.082;8.222;2023-02-28T09:54:38;4.30;86.00
1778;DHT22;886;50.082;8.222;2023-02-28T09:57:13;4.30;86.60
1778;DHT22;886;50.082;8.222;2023-02-28T09:59:56;4.30;86.90
1778;DHT22;886;50.082;8.222;2023-02-28T10:02:48;4.40;86.20
1778;DHT22;886;50.082;8.222;2023-02-28T10:05:28;4.50;86.00
1778;DHT22;886;50.082;8.222;2023-02-28T10:08:05;4.50;85.50
1778;DHT22;886;50.082;8.222;2023-02-28T10:10:39;4.40;85.30
1778;DHT22;886;50.082;8.222;2023-02-28T10:13:17;4.50;85.40
1778;DHT22;886;50.082;8.222;2023-02-28T10:15:53;4.60;85.30
1778;DHT22;886;50.082;8.222;2023-02-28T10:18:25;4.60;85.20
1778;DHT22;886;50.082;8.222;2023-02-28T10:20:55;4.60;85.60
1778;DHT22;886;50.082;8.222;2023-02-28T10:23:26;4.70;85.60
1778;DHT22;886;50.082;8.222;2023-02-28T10:25:58;4.70;85.40
1778;DHT22;886;50.082;8.222;2023-02-28T10:28:29;4.80;85.10
1778;DHT22;886;50.082;8.222;2023-02-28T10:30:58;4.90;84.60
1778;DHT22;886;50.082;8.222;2023-02-28T10:33:28;4.90;84.40
1778;DHT22;886;50.082;8.222;2023-02-28T10:35:57;5.00;83.80
1778;DHT22;886;50.082;8.222;2023-02-28T10:38:28;5.10;84.00
1778;DHT22;886;50.082;8.222;2023-02-28T10:41:07;5.10;84.00
1778;DHT22;886;50.082;8.222;2023-02-28T10:43:39;5.20;84.10
1778;DHT22;886;50.082;8.222;2023-02-28T10:46:15;5.30;84.20
1778;DHT22;886;50.082;8.222;2023-02-28T10:49:02;5.40;83.40
1778;DHT22;886;50.082;8.222;2023-02-28T10:51:38;5.30;83.00
1778;DHT22;886;50.082;8.222;2023-02-28T10:54:15;5.10;82.90
1778;DHT22;886;50.082;8.222;2023-02-28T10:56:43;4.90;83.00
1778;DHT22;886;50.082;8.222;2023-02-28T10:59:30;4.80;83.60
1778;DHT22;886;50.082;8.222;2023-02-28T11:01:58;4.70;83.50
1778;DHT22;886;50.082;8.222;2023-02-28T11:04:36;4.70;83.70
1778;DHT22;886;50.082;8.222;2023-02-28T11:07:17;4.80;83.70
1778;DHT22;886;50.082;8.222;2023-02-28T11:09:50;5.00;83.80
1778;DHT22;886;50.082;8.222;2023-02-28T11:12:22;5.10;82.50
1778;DHT22;886;50.082;8.222;2023-02-28T11:14:54;5.10;82.40
1778;DHT22;886;50.082;8.222;2023-02-28T11:17:24;5.10;82.70
1778;DHT22;886;50.082;8.222;2023-02-28T11:19:55;5.00;82.80
1778;DHT22;886;50.082;8.222;2023-02-28T11:22:28;4.90;82.90
1778;DHT22;886;50.082;8.222;2023-02-28T11:24:59;4.90;83.30
1778;DHT22;886;50.082;8.222;2023-02-28T11:27:47;4.80;82.90
1778;DHT22;886;50.082;8.222;2023-02-28T11:30:35;4.80;83.10
1778;DHT22;886;50.082;8.222;2023-02-28T11:33:24;4.80;83.30
1778;DHT22;886;50.082;8.222;2023-02-28T11:35:57;4.90;83.40
1778;DHT22;886;50.082;8.222;2023-02-28T11:38:27;5.00;83.20
1778;DHT22;886;50.082;8.222;2023-02-28T11:41:07;4.90;82.90
1778;DHT22;886;50.082;8.222;2023-02-28T11:43:57;4.90;83.20
1778;DHT22;886;50.082;8.222;2023-02-28T11:46:41;4.90;82.80
1778;DHT22;886;50.082;8.222;2023-02-28T11:52:14;5.00;82.40
1778;DHT22;886;50.082;8.222;2023-02-28T11:55:04;5.00;82.60
1778;DHT22;886;50.082;8.222;2023-02-28T11:57:53;5.00;82.60
1778;DHT22;886;50.082;8.222;2023-02-28T12:00:44;5.10;82.30
1778;DHT22;886;50.082;8.222;2023-02-28T12:03:28;5.20;82.00
1778;DHT22;886;50.082;8.222;2023-02-28T12:06:09;5.20;82.00
1778;DHT22;886;50.082;8.222;2023-02-28T12:08:49;5.20;81.80
1778;DHT22;886;50.082;8.222;2023-02-28T12:11:30;5.20;81.70
1778;DHT22;886;50.082;8.222;2023-02-28T12:14:26;5.10;81.40
1778;DHT22;886;50.082;8.222;2023-02-28T12:17:21;5.10;81.50
1778;DHT22;886;50.082;8.222;2023-02-28T12:20:02;5.10;81.80
1778;DHT22;886;50.082;8.222;2023-02-28T12:22:42;5.20;82.40
1778;DHT22;886;50.082;8.222;2023-02-28T12:25:39;5.30;82.50
1778;DHT22;886;50.082;8.222;2023-02-28T12:28:17;5.40;82.10
1778;DHT22;886;50.082;8.222;2023-02-28T12:30:53;5.50;81.00
1778;DHT22;886;50.082;8.222;2023-02-28T12:33:28;5.50;80.70
1778;DHT22;886;50.082;8.222;2023-02-28T12:36:05;5.40;81.00
1778;DHT22;886;50.082;8.222;2023-02-28T12:38:41;5.50;80.90
1778;DHT22;886;50.082;8.222;2023-02-28T12:41:14;5.50;81.00
1778;DHT22;886;50.082;8.222;2023-02-28T12:43:46;5.50;80.70
1778;DHT22;886;50.082;8.222;2023-02-28T12:46:19;5.50;80.80
1778;DHT22;886;50.082;8.222;2023-02-28T12:48:52;5.50;80.40
1778;DHT22;886;50.082;8.222;2023-02-28T12:51:24;5.50;80.40
1778;DHT22;886;50.082;8.222;2023-02-28T12:54:00;5.50;80.60
1778;DHT22;886;50.082;8.222;2023-02-28T12:56:40;5.60;80.50
1778;DHT22;886;50.082;8.222;2023-02-28T12:59:17;5.60;80.90
1778;DHT22;886;50.082;8.222;2023-02-28T13:02:18;5.60;80.40
1778;DHT22;886;50.082;8.222;2023-02-28T13:05:13;5.70;81.00
1778;DHT22;886;50.082;8.222;2023-02-28T13:08:17;5.70;80.10
1778;DHT22;886;50.082;8.222;2023-02-28T13:10:51;5.70;79.60
1778;DHT22;886;50.082;8.222;2023-02-28T13:13:23;5.70;80.50
1778;DHT22;886;50.082;8.222;2023-02-28T13:16:02;5.70;80.60
1778;DHT22;886;50.082;8.222;2023-02-28T13:18:33;5.70;79.80
1778;DHT22;886;50.082;8.222;2023-02-28T13:21:05;5.70;79.80
1778;DHT22;886;50.082;8.222;2023-02-28T13:29:39;5.90;79.70
1778;DHT22;886;50.082;8.222;2023-02-28T13:32:35;5.90;79.60
1778;DHT22;886;50.082;8.222;2023-02-28T13:35:35;5.90;79.80
1778;DHT22;886;50.082;8.222;2023-02-28T13:38:32;6.00;80.20
1778;DHT22;886;50.082;8.222;2023-02-28T13:44:18;6.10;79.70
1778;DHT22;886;50.082;8.222;2023-02-28T13:47:25;6.10;79.70
1778;DHT22;886;50.082;8.222;2023-02-28T13:50:14;6.10;79.80
1778;DHT22;886;50.082;8.222;2023-02-28T13:52:50;6.10;79.60
1778;DHT22;886;50.082;8.222;2023-02-28T13:55:26;6.10;79.30
1778;DHT22;886;50.082;8.222;2023-02-28T13:58:20;6.10;79.60
1778;DHT22;886;50.082;8.222;2023-02-28T14:01:14;6.10;79.30
1778;DHT22;886;50.082;8.222;2023-02-28T14:04:23;6.10;79.00
1778;DHT22;886;50.082;8.222;2023-02-28T14:07:08;6.10;79.20
1778;DHT22;886;50.082;8.222;2023-02-28T14:09:49;6.00;78.80
1778;DHT22;886;50.082;8.222;2023-02-28T14:12:57;6.00;80.00
1778;DHT22;886;50.082;8.222;2023-02-28T14:18:28;6.00;80.90
1778;DHT22;886;50.082;8.222;2023-02-28T14:21:08;6.10;79.70
1778;DHT22;886;50.082;8.222;2023-02-28T14:27:17;6.10;80.10
1778;DHT22;886;50.082;8.222;2023-02-28T14:30:26;6.10;80.10
1778;DHT22;886;50.082;8.222;2023-02-28T14:33:22;6.20;80.40
1778;DHT22;886;50.082;8.222;2023-02-28T14:36:03;6.20;79.90
1778;DHT22;886;50.082;8.222;2023-02-28T14:38:36;6.20;79.40
1778;DHT22;886;50.082;8.222;2023-02-28T14:41:18;6.10;79.60
1778;DHT22;886;50.082;8.222;2023-02-28T14:43:50;6.10;79.30
1778;DHT22;886;50.082;8.222;2023-02-28T14:46:23;6.10;79.60
1778;DHT22;886;50.082;8.222;2023-02-28T14:48:56;6.20;79.70
1778;DHT22;886;50.082;8.222;2023-02-28T14:51:24;6.10;79.70
1778;DHT22;886;50.082;8.222;2023-02-28T14:53:56;6.20;79.90
1778;DHT22;886;50.082;8.222;2023-02-28T14:56:28;6.20;80.10
1778;DHT22;886;50.082;8.222;2023-02-28T14:58:59;6.10;80.20
1778;DHT22;886;50.082;8.222;2023-02-28T15:01:29;6.10;80.80
1778;DHT22;886;50.082;8.222;2023-02-28T15:04:03;6.00;80.80
1778;DHT22;886;50.082;8.222;2023-02-28T15:06:33;6.00;80.80
1778;DHT22;886;50.082;8.222;2023-02-28T15:09:08;6.10;81.10
1778;DHT22;886;50.082;8.222;2023-02-28T15:11:39;6.10;80.80
1778;DHT22;886;50.082;8.222;2023-02-28T15:14:15;6.10;80.70
1778;DHT22;886;50.082;8.222;2023-02-28T15:16:49;6.10;81.00
1778;DHT22;886;50.082;8.222;2023-02-28T15:19:22;6.00;81.10
1778;DHT22;886;50.082;8.222;2023-02-28T15:21:55;6.00;81.10
1778;DHT22;886;50.082;8.222;2023-02-28T15:24:35;6.00;81.60
1778;DHT22;886;50.082;8.222;2023-02-28T15:27:06;6.00;81.80
1778;DHT22;886;50.082;8.222;2023-02-28T15:29:43;6.10;81.80
1778;DHT22;886;50.082;8.222;2023-02-28T15:32:25;6.10;81.60
1778;DHT22;886;50.082;8.222;2023-02-28T15:34:55;6.10;81.40
1778;DHT22;886;50.082;8.222;2023-02-28T15:37:29;6.10;81.10
1778;DHT22;886;50.082;8.222;2023-02-28T15:40:12;6.10;81.40
1778;DHT22;886;50.082;8.222;2023-02-28T15:42:42;6.10;81.40
1778;DHT22;886;50.082;8.222;2023-02-28T15:45:32;6.00;81.40
1778;DHT22;886;50.082;8.222;2023-02-28T15:48:09;6.00;81.40
1778;DHT22;886;50.082;8.222;2023-02-28T15:50:42;5.90;81.80
1778;DHT22;886;50.082;8.222;2023-02-28T15:53:13;5.90;82.20
1778;DHT22;886;50.082;8.222;2023-02-28T15:55:44;5.90;82.40
1778;DHT22;886;50.082;8.222;2023-02-28T15:58:12;5.90;82.50
1778;DHT22;886;50.082;8.222;2023-02-28T16:00:43;5.90;82.70
1778;DHT22;886;50.082;8.222;2023-02-28T16:03:38;5.90;82.80
1778;DHT22;886;50.082;8.222;2023-02-28T16:06:41;5.90;82.70
1778;DHT22;886;50.082;8.222;2023-02-28T16:09:11;5.90;82.40
1778;DHT22;886;50.082;8.222;2023-02-28T16:11:43;5.90;82.90
1778;DHT22;886;50.082;8.222;2023-02-28T16:14:17;5.80;83.00
1778;DHT22;886;50.082;8.222;2023-02-28T16:16:46;5.80;83.10
1778;DHT22;886;50.082;8.222;2023-02-28T16:19:17;5.70;83.60
1778;DHT22;886;50.082;8.222;2023-02-28T16:21:45;5.70;83.20
1778;DHT22;886;50.082;8.222;2023-02-28T16:24:13;5.70;83.50
1778;DHT22;886;50.082;8.222;2023-02-28T16:26:42;5.70;83.50
1778;DHT22;886;50.082;8.222;2023-02-28T16:29:23;5.70;83.30
1778;DHT22;886;50.082;8.222;2023-02-28T16:31:52;5.70;83.70
1778;DHT22;886;50.082;8.222;2023-02-28T16:34:22;5.60;83.60
1778;DHT22;886;50.082;8.222;2023-02-28T16:36:50;5.60;83.70
1778;DHT22;886;50.082;8.222;2023-02-28T16:39:18;5.60;84.00
1778;DHT22;886;50.082;8.222;2023-02-28T16:41:48;5.60;84.10
1778;DHT22;886;50.082;8.222;2023-02-28T16:44:26;5.60;84.20
1778;DHT22;886;50.082;8.222;2023-02-28T16:46:54;5.60;84.30
1778;DHT22;886;50.082;8.222;2023-02-28T16:49:24;5.60;84.40
1778;DHT22;886;50.082;8.222;2023-02-28T16:51:51;5.60;84.20
1778;DHT22;886;50.082;8.222;2023-02-28T16:54:18;5.50;84.20
1778;DHT22;886;50.082;8.222;2023-02-28T16:56:47;5.50;84.50
1778;DHT22;886;50.082;8.222;2023-02-28T16:59:18;5.50;84.50
1778;DHT22;886;50.082;8.222;2023-02-28T17:01:48;5.40;84.60
1778;DHT22;886;50.082;8.222;2023-02-28T17:04:16;5.40;84.90
1778;DHT22;886;50.082;8.222;2023-02-28T17:06:45;5.40;85.10
1778;DHT22;886;50.082;8.222;2023-02-28T17:09:16;5.30;85.20
1778;DHT22;886;50.082;8.222;2023-02-28T17:11:45;5.30;85.60
1778;DHT22;886;50.082;8.222;2023-02-28T17:14:13;5.30;85.50
1778;DHT22;886;50.082;8.222;2023-02-28T17:16:41;5.20;85.70
1778;DHT22;886;50.082;8.222;2023-02-28T17:19:11;5.20;85.70
1778;DHT22;886;50.082;8.222;2023-02-28T17:21:41;5.20;85.90
1778;DHT22;886;50.082;8.222;2023-02-28T17:24:10;5.20;85.90
1778;DHT22;886;50.082;8.222;2023-02-28T17:26:51;5.20;85.90
1778;DHT22;886;50.082;8.222;2023-02-28T17:29:19;5.10;85.90
1778;DHT22;886;50.082;8.222;2023-02-28T17:31:48;5.10;85.90
1778;DHT22;886;50.082;8.222;2023-02-28T17:34:15;5.10;86.00
1778;DHT22;886;50.082;8.222;2023-02-28T17:36:49;5.10;86.00
1778;DHT22;886;50.082;8.222;2023-02-28T17:39:20;5.10;86.00
1778;DHT22;886;50.082;8.222;2023-02-28T17:41:51;5.10;86.10
1778;DHT22;886;50.082;8.222;2023-02-28T17:44:19;5.10;86.10
1778;DHT22;886;50.082;8.222;2023-02-28T17:46:47;5.10;86.30
1778;DHT22;886;50.082;8.222;2023-02-28T17:49:17;5.00;86.60